createdAt,value
2022-11-02T00:01:27.991Z,11.60
2022-11-02T00:03:56.119Z,11.70
2022-11-02T00:06:25.556Z,11.60
2022-11-02T00:08:53.607Z,11.70
2022-11-02T00:11:21.641Z,11.80
2022-11-02T00:13:49.773Z,11.90
2022-11-02T00:16:20.509Z,12.00
2022-11-02T00:18:52.488Z,12.00
2022-11-02T00:21:21.493Z,12.20
2022-11-02T00:23:51.264Z,12.20
2022-11-02T00:26:20.217Z,12.10
2022-11-02T00:28:48.545Z,12.10
2022-11-02T00:31:16.629Z,12.20
2022-11-02T00:33:44.630Z,12.20
2022-11-02T00:36:12.820Z,12.20
2022-11-02T00:38:41.179Z,12.20
2022-11-02T00:41:10.593Z,12.30
2022-11-02T00:43:38.597Z,12.30
2022-11-02T00:46:06.784Z,12.30
2022-11-02T00:48:34.893Z,12.30
2022-11-02T00:51:03.067Z,12.30
2022-11-02T00:53:31.412Z,12.20
2022-11-02T00:55:59.581Z,12.30
2022-11-02T00:58:28.991Z,12.40
2022-11-02T01:00:57.708Z,12.40
2022-11-02T01:03:25.835Z,12.30
2022-11-02T01:05:53.853Z,12.30
2022-11-02T01:08:21.869Z,12.30
2022-11-02T01:10:50.134Z,12.30
2022-11-02T01:13:18.569Z,12.40
2022-11-02T01:15:47.960Z,12.40
2022-11-02T01:18:15.949Z,12.40
2022-11-02T01:20:43.930Z,12.30
2022-11-02T01:23:12.059Z,12.30
2022-11-02T01:25:45.527Z,12.40
2022-11-02T01:28:13.662Z,12.50
2022-11-02T01:30:41.734Z,12.40
2022-11-02T01:33:11.820Z,12.30
2022-11-02T01:35:40.011Z,12.20
2022-11-02T01:38:08.156Z,12.10
2022-11-02T01:40:36.946Z,12.20
2022-11-02T01:43:20.702Z,12.10
2022-11-02T01:45:49.773Z,12.10
2022-11-02T01:48:22.129Z,12.10
2022-11-02T01:50:50.899Z,12.30
2022-11-02T01:53:19.065Z,12.40
2022-11-02T01:55:47.472Z,12.40
2022-11-02T01:58:15.620Z,12.30
2022-11-02T02:00:44.102Z,12.30
2022-11-02T02:03:16.771Z,12.30
2022-11-02T02:05:50.680Z,12.30
2022-11-02T02:08:21.885Z,12.20
2022-11-02T02:10:50.061Z,12.20
2022-11-02T02:13:19.586Z,12.30
2022-11-02T02:15:55.733Z,12.20
2022-11-02T02:18:28.807Z,12.10
2022-11-02T02:21:20.323Z,12.10
2022-11-02T02:24:19.283Z,12.20
2022-11-02T02:27:08.143Z,12.20
2022-11-02T02:30:05.436Z,12.20
2022-11-02T02:32:41.156Z,12.20
2022-11-02T02:35:16.368Z,12.30
2022-11-02T02:37:51.128Z,12.30
2022-11-02T02:40:24.206Z,12.40
2022-11-02T02:42:55.643Z,12.40
2022-11-02T02:45:32.361Z,12.40
2022-11-02T02:48:07.639Z,12.40
2022-11-02T02:50:40.366Z,12.40
2022-11-02T02:53:09.647Z,12.40
2022-11-02T02:55:42.330Z,12.30
2022-11-02T02:58:17.569Z,12.30
2022-11-02T03:00:47.384Z,12.20
2022-11-02T03:03:19.682Z,12.30
2022-11-02T03:06:02.726Z,12.20
2022-11-02T03:08:32.948Z,12.30
2022-11-02T03:11:06.785Z,12.40
2022-11-02T03:13:46.623Z,12.20
2022-11-02T03:16:33.110Z,12.10
2022-11-02T03:19:10.311Z,12.20
2022-11-02T03:21:42.349Z,12.20
2022-11-02T03:24:15.384Z,12.20
2022-11-02T03:26:50.520Z,12.00
2022-11-02T03:29:22.654Z,12.20
2022-11-02T03:31:57.697Z,12.20
2022-11-02T03:34:29.522Z,12.40
2022-11-02T03:37:03.920Z,12.30
2022-11-02T03:39:36.488Z,12.30
2022-11-02T03:42:05.757Z,12.50
2022-11-02T03:44:39.154Z,12.40
2022-11-02T03:47:13.473Z,12.30
2022-11-02T03:49:43.520Z,12.30
2022-11-02T03:52:16.651Z,12.30
2022-11-02T03:54:50.285Z,12.50
2022-11-02T03:57:22.596Z,12.30
2022-11-02T03:59:50.926Z,12.20
2022-11-02T04:02:20.774Z,12.20
2022-11-02T04:04:50.615Z,12.20
2022-11-02T04:07:23.609Z,12.20
2022-11-02T04:09:51.633Z,12.20
2022-11-02T04:12:37.049Z,12.20
2022-11-02T04:15:05.736Z,12.40
2022-11-02T04:17:52.683Z,12.30
2022-11-02T04:20:20.732Z,12.40
2022-11-02T04:23:06.250Z,12.50
2022-11-02T04:25:34.259Z,12.40
2022-11-02T04:28:09.563Z,12.20
2022-11-02T04:30:37.677Z,12.10
2022-11-02T04:33:24.421Z,12.10
2022-11-02T04:35:52.616Z,12.20
2022-11-02T04:38:38.458Z,12.20
2022-11-02T04:41:24.375Z,12.10
2022-11-02T04:43:52.859Z,12.20
2022-11-02T04:46:21.741Z,12.10
2022-11-02T04:48:51.969Z,12.10
2022-11-02T04:51:21.652Z,12.20
2022-11-02T04:53:49.962Z,12.20
2022-11-02T04:56:18.094Z,12.10
2022-11-02T04:58:50.659Z,11.90
2022-11-02T05:01:19.936Z,12.00
2022-11-02T05:03:48.810Z,12.10
2022-11-02T05:06:18.931Z,12.00
2022-11-02T05:08:46.952Z,12.00
2022-11-02T05:11:15.298Z,11.80
2022-11-02T05:13:44.645Z,11.80
2022-11-02T05:16:14.487Z,11.80
2022-11-02T05:18:42.753Z,11.70
2022-11-02T05:21:12.342Z,11.80
2022-11-02T05:23:41.728Z,11.80
2022-11-02T05:26:13.297Z,11.80
2022-11-02T05:28:41.482Z,11.90
2022-11-02T05:31:09.745Z,11.90
2022-11-02T05:33:38.983Z,11.80
2022-11-02T05:36:07.465Z,11.90
2022-11-02T05:38:35.524Z,12.00
2022-11-02T05:41:05.173Z,12.20
2022-11-02T05:43:33.369Z,12.30
2022-11-02T05:46:02.920Z,12.40
2022-11-02T05:48:33.457Z,12.30
2022-11-02T05:51:02.771Z,12.30
2022-11-02T05:53:33.876Z,12.30
2022-11-02T05:56:02.968Z,12.10
2022-11-02T05:58:32.889Z,12.10
2022-11-02T06:01:01.645Z,12.10
2022-11-02T06:03:30.063Z,12.00
2022-11-02T06:05:58.348Z,11.90
2022-11-02T06:08:26.744Z,11.90
2022-11-02T06:10:55.447Z,11.80
2022-11-02T06:13:23.503Z,11.90
2022-11-02T06:15:52.917Z,11.90
2022-11-02T06:18:20.972Z,11.90
2022-11-02T06:20:48.962Z,11.90
2022-11-02T06:23:18.343Z,11.90
2022-11-02T06:25:52.286Z,11.90
2022-11-02T06:28:20.510Z,11.90
2022-11-02T06:30:49.231Z,11.90
2022-11-02T06:33:19.301Z,12.20
2022-11-02T06:35:47.996Z,12.20
2022-11-02T06:38:16.359Z,12.20
2022-11-02T06:40:44.440Z,12.30
2022-11-02T06:43:17.419Z,12.50
2022-11-02T06:45:46.885Z,12.60
2022-11-02T06:48:15.184Z,12.70
2022-11-02T06:50:44.955Z,12.80
2022-11-02T06:53:13.000Z,12.80
2022-11-02T06:55:41.030Z,12.80
2022-11-02T06:58:09.029Z,12.80
2022-11-02T07:00:37.663Z,12.70
2022-11-02T07:03:08.372Z,12.80
2022-11-02T07:05:37.382Z,12.90
2022-11-02T07:08:07.013Z,12.90
2022-11-02T07:10:36.320Z,13.00
2022-11-02T07:13:05.032Z,13.00
2022-11-02T07:15:33.228Z,13.00
2022-11-02T07:18:01.293Z,13.10
2022-11-02T07:20:30.381Z,13.00
2022-11-02T07:23:00.205Z,13.10
2022-11-02T07:25:31.430Z,13.10
2022-11-02T07:28:00.603Z,13.30
2022-11-02T07:30:29.354Z,13.20
2022-11-02T07:32:57.573Z,13.20
2022-11-02T07:35:26.053Z,13.30
2022-11-02T07:37:58.541Z,13.30
2022-11-02T07:40:27.985Z,13.40
2022-11-02T07:42:57.728Z,13.50
2022-11-02T07:45:26.032Z,13.50
2022-11-02T07:47:54.090Z,13.50
2022-11-02T07:50:24.140Z,13.50
2022-11-02T07:52:53.980Z,13.60
2022-11-02T07:55:23.758Z,13.80
2022-11-02T07:57:55.584Z,13.80
2022-11-02T08:00:25.380Z,14.10
2022-11-02T08:02:56.227Z,14.20
2022-11-02T08:05:26.279Z,14.30
2022-11-02T08:08:00.395Z,14.40
2022-11-02T08:10:30.901Z,14.50
2022-11-02T08:13:00.723Z,14.80
2022-11-02T08:15:30.203Z,15.00
2022-11-02T08:18:03.357Z,15.00
2022-11-02T08:20:32.090Z,15.10
2022-11-02T08:23:00.145Z,15.10
2022-11-02T08:25:28.532Z,15.00
2022-11-02T08:27:58.949Z,15.10
2022-11-02T08:30:27.383Z,15.30
2022-11-02T08:32:57.484Z,15.40
2022-11-02T08:35:25.601Z,15.30
2022-11-02T08:37:57.322Z,15.20
2022-11-02T08:40:25.682Z,15.30
2022-11-02T08:42:57.844Z,15.30
2022-11-02T08:45:26.531Z,15.40
2022-11-02T08:47:56.371Z,15.40
2022-11-02T08:50:25.803Z,15.40
2022-11-02T08:52:54.182Z,15.40
2022-11-02T08:55:22.435Z,15.60
2022-11-02T08:57:52.595Z,15.60
2022-11-02T09:00:22.629Z,15.80
2022-11-02T09:03:05.305Z,15.90
2022-11-02T09:05:35.180Z,16.00
2022-11-02T09:08:05.426Z,16.00
2022-11-02T09:10:35.354Z,15.90
2022-11-02T09:13:05.854Z,16.00
2022-11-02T09:15:37.427Z,16.00
2022-11-02T09:18:08.095Z,16.00
2022-11-02T09:20:37.061Z,15.90
2022-11-02T09:23:05.306Z,15.70
2022-11-02T09:25:33.498Z,15.60
2022-11-02T09:28:01.731Z,15.50
2022-11-02T09:30:30.474Z,15.50
2022-11-02T09:33:00.239Z,15.40
2022-11-02T09:35:32.440Z,15.40
2022-11-02T09:38:00.597Z,15.50
2022-11-02T09:40:32.731Z,15.50
2022-11-02T09:43:10.288Z,15.50
2022-11-02T09:45:52.103Z,15.50
2022-11-02T09:48:28.668Z,15.40
2022-11-02T09:51:04.168Z,15.50
2022-11-02T09:53:51.656Z,15.50
2022-11-02T09:56:20.810Z,15.50
2022-11-02T09:59:00.652Z,15.40
2022-11-02T10:01:48.426Z,15.40
2022-11-02T10:04:50.298Z,15.40
2022-11-02T10:07:30.552Z,15.40
2022-11-02T10:10:04.213Z,15.50
2022-11-02T10:12:42.098Z,15.50
2022-11-02T10:15:13.512Z,15.60
2022-11-02T10:17:43.380Z,15.70
2022-11-02T10:20:20.784Z,15.70
2022-11-02T10:22:50.319Z,15.80
2022-11-02T10:25:18.737Z,15.80
2022-11-02T10:27:51.470Z,15.90
2022-11-02T10:30:22.123Z,16.10
2022-11-02T10:32:53.823Z,16.20
2022-11-02T10:35:41.264Z,16.30
2022-11-02T10:38:30.282Z,16.30
2022-11-02T10:41:14.667Z,16.40
2022-11-02T10:43:56.779Z,16.40
2022-11-02T10:46:38.982Z,16.30
2022-11-02T10:49:13.899Z,16.20
2022-11-02T10:51:42.347Z,16.00
2022-11-02T10:54:18.647Z,16.00
2022-11-02T10:56:50.935Z,15.90
2022-11-02T10:59:21.099Z,16.00
2022-11-02T11:02:06.998Z,16.00
2022-11-02T11:04:36.166Z,16.00
2022-11-02T11:07:07.648Z,16.20
2022-11-02T11:09:44.270Z,16.40
2022-11-02T11:12:20.858Z,16.40
2022-11-02T11:20:35.336Z,16.40
2022-11-02T11:23:19.028Z,16.40
2022-11-02T11:26:01.063Z,16.50
2022-11-02T11:28:32.269Z,16.20
2022-11-02T11:31:13.255Z,16.20
2022-11-02T11:33:51.516Z,16.40
2022-11-02T11:39:01.895Z,16.60
2022-11-02T11:41:34.214Z,16.60
2022-11-02T11:44:03.596Z,16.90
2022-11-02T11:46:43.765Z,17.00
2022-11-02T11:49:35.812Z,17.10
2022-11-02T11:52:20.090Z,17.20
2022-11-02T11:54:55.316Z,17.30
2022-11-02T11:57:29.373Z,17.20
2022-11-02T11:59:59.770Z,17.30
2022-11-02T12:02:29.912Z,17.40
2022-11-02T12:05:03.406Z,17.50
2022-11-02T12:08:10.880Z,17.50
2022-11-02T12:10:49.659Z,17.80
2022-11-02T12:13:33.106Z,17.90
2022-11-02T12:16:15.280Z,17.50
2022-11-02T12:19:18.237Z,17.30
2022-11-02T12:21:58.167Z,17.10
2022-11-02T12:24:52.831Z,17.10
2022-11-02T12:27:31.470Z,16.80
2022-11-02T12:30:14.562Z,16.90
2022-11-02T12:33:16.476Z,16.80
2022-11-02T12:36:04.008Z,16.70
2022-11-02T12:38:57.904Z,16.60
2022-11-02T12:41:47.302Z,16.60
2022-11-02T12:44:35.600Z,17.00
2022-11-02T12:47:12.539Z,17.10
2022-11-02T12:49:48.389Z,17.10
2022-11-02T12:52:29.509Z,17.20
2022-11-02T12:54:59.661Z,17.40
2022-11-02T12:57:31.639Z,17.60
2022-11-02T13:00:04.310Z,17.60
2022-11-02T13:02:42.251Z,17.80
2022-11-02T13:05:15.636Z,18.00
2022-11-02T13:07:48.645Z,18.10
2022-11-02T13:10:20.528Z,18.10
2022-11-02T13:12:52.215Z,18.10
2022-11-02T13:15:25.161Z,18.00
2022-11-02T13:17:58.252Z,18.10
2022-11-02T13:20:29.665Z,18.20
2022-11-02T13:23:15.334Z,18.30
2022-11-02T13:25:48.363Z,18.30
2022-11-02T13:28:20.516Z,18.40
2022-11-02T13:30:49.175Z,18.50
2022-11-02T13:33:23.929Z,18.50
2022-11-02T13:35:53.648Z,18.40
2022-11-02T13:38:30.241Z,18.30
2022-11-02T13:41:20.904Z,18.20
2022-11-02T13:44:17.608Z,18.20
2022-11-02T13:47:11.990Z,18.00
2022-11-02T13:49:43.931Z,17.80
2022-11-02T13:52:15.301Z,17.90
2022-11-02T13:54:47.222Z,17.90
2022-11-02T13:57:33.432Z,17.80
2022-11-02T14:00:03.033Z,17.80
2022-11-02T14:02:36.185Z,17.90
2022-11-02T14:05:06.185Z,17.90
2022-11-02T14:07:36.822Z,17.90
2022-11-02T14:10:15.144Z,18.10
2022-11-02T14:12:45.611Z,18.10
2022-11-02T14:15:42.568Z,18.00
2022-11-02T14:18:30.803Z,18.00
2022-11-02T14:21:21.512Z,18.10
2022-11-02T14:23:49.651Z,18.00
2022-11-02T14:26:55.802Z,18.10
2022-11-02T14:29:51.557Z,18.00
2022-11-02T14:38:24.984Z,18.10
2022-11-02T14:44:25.056Z,17.80
2022-11-02T14:46:57.589Z,17.80
2022-11-02T14:49:31.778Z,17.80
2022-11-02T14:52:04.550Z,17.70
2022-11-02T14:54:39.840Z,17.60
2022-11-02T14:57:20.973Z,17.70
2022-11-02T14:59:53.360Z,17.60
2022-11-02T15:02:25.684Z,17.50
2022-11-02T15:04:56.170Z,17.40
2022-11-02T15:07:30.849Z,17.50
2022-11-02T15:10:01.510Z,17.50
2022-11-02T15:12:41.203Z,17.50
2022-11-02T15:15:32.711Z,17.40
2022-11-02T15:18:35.590Z,17.30
2022-11-02T15:21:25.859Z,17.20
2022-11-02T15:24:11.029Z,17.10
2022-11-02T15:26:49.112Z,17.10
2022-11-02T15:29:37.000Z,16.90
2022-11-02T15:32:09.476Z,16.60
2022-11-02T15:34:42.332Z,16.60
2022-11-02T15:37:17.901Z,16.40
2022-11-02T15:39:50.022Z,16.40
2022-11-02T15:42:29.535Z,16.30
2022-11-02T15:45:34.118Z,16.20
2022-11-02T15:48:23.585Z,16.00
2022-11-02T15:51:00.040Z,16.00
2022-11-02T15:54:12.312Z,15.80
2022-11-02T15:57:02.004Z,15.60
2022-11-02T15:59:55.762Z,15.30
2022-11-02T16:02:27.309Z,15.20
2022-11-02T16:04:57.880Z,15.20
2022-11-02T16:07:33.173Z,15.20
2022-11-02T16:10:26.740Z,15.00
2022-11-02T16:12:59.593Z,14.70
2022-11-02T16:15:29.965Z,14.60
2022-11-02T16:17:58.919Z,14.70
2022-11-02T16:20:31.987Z,14.60
2022-11-02T16:23:03.173Z,14.60
2022-11-02T16:25:39.594Z,14.60
2022-11-02T16:28:20.422Z,14.40
2022-11-02T16:31:10.263Z,14.10
2022-11-02T16:33:44.161Z,14.50
2022-11-02T16:36:15.029Z,14.40
2022-11-02T16:38:52.156Z,14.30
2022-11-02T16:41:20.636Z,14.10
2022-11-02T16:43:51.098Z,13.80
2022-11-02T16:46:30.834Z,13.80
2022-11-02T16:49:08.603Z,13.90
2022-11-02T16:51:37.328Z,14.10
2022-11-02T16:54:24.900Z,14.00
2022-11-02T16:56:54.284Z,13.80
2022-11-02T16:59:23.836Z,13.70
2022-11-02T17:02:00.538Z,13.80
2022-11-02T17:04:31.850Z,13.90
2022-11-02T17:07:12.495Z,13.80
2022-11-02T17:09:40.962Z,14.00
2022-11-02T17:12:13.977Z,13.90
2022-11-02T17:14:43.060Z,13.70
2022-11-02T17:17:33.216Z,13.70
2022-11-02T17:20:19.000Z,13.70
2022-11-02T17:22:52.897Z,13.90
2022-11-02T17:25:23.857Z,13.90
2022-11-02T17:27:52.658Z,13.90
2022-11-02T17:30:43.542Z,14.00
2022-11-02T17:33:24.892Z,13.90
2022-11-02T17:35:55.079Z,14.00
2022-11-02T17:38:27.711Z,13.90
2022-11-02T17:40:56.278Z,13.80
2022-11-02T17:43:24.234Z,13.80
2022-11-02T17:45:56.915Z,13.80
2022-11-02T17:48:28.876Z,13.70
2022-11-02T17:50:59.661Z,13.70
2022-11-02T17:53:28.038Z,13.60
2022-11-02T17:55:56.493Z,13.70
2022-11-02T17:58:24.656Z,13.70
2022-11-02T18:00:55.355Z,13.60
2022-11-02T18:03:29.925Z,13.80
2022-11-02T18:06:01.010Z,13.80
2022-11-02T18:08:29.557Z,13.80
2022-11-02T18:10:57.842Z,13.90
2022-11-02T18:13:26.171Z,13.90
2022-11-02T18:15:54.359Z,13.80
2022-11-02T18:18:22.443Z,13.80
2022-11-02T18:20:50.608Z,13.80
2022-11-02T18:23:20.542Z,13.80
2022-11-02T18:25:48.915Z,13.70
2022-11-02T18:28:17.010Z,13.50
2022-11-02T18:30:45.406Z,13.40
2022-11-02T18:33:14.375Z,13.30
2022-11-02T18:35:44.093Z,13.10
2022-11-02T18:38:12.947Z,12.80
2022-11-02T18:40:42.408Z,12.70
2022-11-02T18:43:10.742Z,12.70
2022-11-02T18:45:38.920Z,12.70
2022-11-02T18:48:08.065Z,12.70
2022-11-02T18:50:36.915Z,12.60
2022-11-02T18:53:05.115Z,13.20
2022-11-02T18:55:33.305Z,13.40
2022-11-02T18:58:03.143Z,13.20
2022-11-02T19:00:31.438Z,13.00
2022-11-02T19:02:59.524Z,13.00
2022-11-02T19:05:45.015Z,12.90
2022-11-02T19:08:30.556Z,12.70
2022-11-02T19:10:58.668Z,12.50
2022-11-02T19:13:28.258Z,12.30
2022-11-02T19:15:56.513Z,12.20
2022-11-02T19:18:24.589Z,12.10
2022-11-02T19:20:52.761Z,12.10
2022-11-02T19:23:20.886Z,12.00
2022-11-02T19:25:52.018Z,11.90
2022-11-02T19:28:20.238Z,11.70
2022-11-02T19:30:49.832Z,11.70
2022-11-02T19:33:18.490Z,11.70
2022-11-02T19:35:56.161Z,11.70
2022-11-02T19:38:24.568Z,11.60
2022-11-02T19:41:01.720Z,11.60
2022-11-02T19:43:29.846Z,11.50
2022-11-02T19:46:02.969Z,11.60
2022-11-02T19:48:32.509Z,11.50
2022-11-02T19:51:08.807Z,11.40
2022-11-02T19:53:37.439Z,11.50
2022-11-02T19:56:06.363Z,11.40
2022-11-02T19:58:34.515Z,11.40
2022-11-02T20:01:08.824Z,11.40
2022-11-02T20:03:37.500Z,11.30
2022-11-02T20:06:08.827Z,11.30
2022-11-02T20:08:37.015Z,11.20
2022-11-02T20:11:07.322Z,11.20
2022-11-02T20:13:36.688Z,11.20
2022-11-02T20:16:09.073Z,11.20
2022-11-02T20:18:38.137Z,11.30
2022-11-02T20:21:08.047Z,11.30
2022-11-02T20:23:37.193Z,11.30
2022-11-02T20:26:07.080Z,11.30
2022-11-02T20:28:38.513Z,11.30
2022-11-02T20:31:09.751Z,11.10
2022-11-02T20:33:38.937Z,11.10
2022-11-02T20:36:08.761Z,11.00
2022-11-02T20:38:37.678Z,11.00
2022-11-02T20:41:07.972Z,10.90
2022-11-02T20:43:36.997Z,10.80
2022-11-02T20:46:31.468Z,10.80
2022-11-02T20:49:01.454Z,10.70
2022-11-02T20:51:37.327Z,10.70
2022-11-02T20:54:05.719Z,10.70
2022-11-02T20:56:33.898Z,10.60
2022-11-02T20:59:01.963Z,10.60
2022-11-02T21:01:30.271Z,10.60
2022-11-02T21:03:59.879Z,10.60
2022-11-02T21:06:28.005Z,10.60
2022-11-02T21:08:56.195Z,10.60
2022-11-02T21:11:41.839Z,10.50
2022-11-02T21:14:09.956Z,10.40
2022-11-02T21:16:38.009Z,10.30
2022-11-02T21:19:07.697Z,10.30
2022-11-02T21:21:35.857Z,10.20
2022-11-02T21:24:04.155Z,10.30
2022-11-02T21:26:32.418Z,10.30
2022-11-02T21:29:02.276Z,10.20
2022-11-02T21:31:30.295Z,10.20
2022-11-02T21:33:58.436Z,10.20
2022-11-02T21:36:27.978Z,10.20
2022-11-02T21:38:56.116Z,10.20
2022-11-02T21:41:26.568Z,10.20
2022-11-02T21:43:55.615Z,10.10
2022-11-02T21:46:25.653Z,10.10
2022-11-02T21:48:55.904Z,10.20
2022-11-02T21:51:24.280Z,10.10
2022-11-02T21:53:53.804Z,10.20
2022-11-02T21:56:25.534Z,10.30
2022-11-02T21:58:54.888Z,10.30
2022-11-02T22:01:42.850Z,10.20
2022-11-02T22:04:12.055Z,10.20
2022-11-02T22:06:40.553Z,10.20
2022-11-02T22:09:13.051Z,10.10
2022-11-02T22:11:42.819Z,10.10
2022-11-02T22:14:10.201Z,10.10
2022-11-02T22:16:40.416Z,10.10
2022-11-02T22:19:09.704Z,10.10
2022-11-02T22:21:39.623Z,10.00
2022-11-02T22:24:10.038Z,10.00
2022-11-02T22:26:39.686Z,9.90
2022-11-02T22:29:07.973Z,10.00
2022-11-02T22:31:38.607Z,10.00
2022-11-02T22:34:08.095Z,9.90
2022-11-02T22:36:37.395Z,10.00
2022-11-02T22:39:06.162Z,10.00
2022-11-02T22:41:37.043Z,9.90
2022-11-02T22:44:07.382Z,10.00
2022-11-02T22:46:37.816Z,10.00
2022-11-02T22:49:06.713Z,9.90
2022-11-02T22:51:37.231Z,9.90
2022-11-02T22:54:07.416Z,9.90
2022-11-02T22:56:37.288Z,9.80
2022-11-02T22:59:06.357Z,9.80
2022-11-02T23:01:35.613Z,9.80
2022-11-02T23:04:04.101Z,9.60
2022-11-02T23:06:32.282Z,9.70
2022-11-02T23:09:00.757Z,9.70
2022-11-02T23:11:31.069Z,9.70
2022-11-02T23:14:02.416Z,9.70
2022-11-02T23:16:32.337Z,9.80
2022-11-02T23:19:27.066Z,9.80
2022-11-02T23:22:16.350Z,9.80
2022-11-02T23:25:03.619Z,9.70
2022-11-02T23:27:32.923Z,9.70
2022-11-02T23:30:22.163Z,9.70
2022-11-02T23:32:50.988Z,9.60
2022-11-02T23:35:36.683Z,9.70
2022-11-02T23:38:06.311Z,9.70
2022-11-02T23:40:34.329Z,9.70
2022-11-02T23:43:03.039Z,9.70
2022-11-02T23:45:32.682Z,9.60
2022-11-02T23:48:06.011Z,9.50
2022-11-02T23:50:51.311Z,9.60
2022-11-02T23:53:38.359Z,9.60
2022-11-02T23:56:25.482Z,9.60
2022-11-02T23:59:07.217Z,9.70
